createdAt,value
2022-08-03T00:01:29.315Z,78.46
2022-08-03T00:03:56.798Z,78.86
2022-08-03T00:06:24.253Z,79.19
2022-08-03T00:08:53.094Z,79.23
2022-08-03T00:11:20.636Z,79.64
2022-08-03T00:13:48.644Z,79.44
2022-08-03T00:16:16.247Z,79.56
2022-08-03T00:18:44.063Z,79.61
2022-08-03T00:21:11.523Z,79.68
2022-08-03T00:23:51.437Z,80.28
2022-08-03T00:26:21.947Z,80.77
2022-08-03T00:28:49.636Z,80.43
2022-08-03T00:31:23.067Z,79.58
2022-08-03T00:34:05.185Z,79.65
2022-08-03T00:36:33.636Z,80.67
2022-08-03T00:39:01.124Z,82.26
2022-08-03T00:41:29.949Z,82.25
2022-08-03T00:43:57.421Z,81.74
2022-08-03T00:46:24.870Z,81.36
2022-08-03T00:48:52.915Z,81.21
2022-08-03T00:51:21.698Z,81.35
2022-08-03T00:53:49.787Z,81.12
2022-08-03T00:56:18.172Z,81.30
2022-08-03T00:58:48.010Z,81.04
2022-08-03T01:01:16.049Z,81.10
2022-08-03T01:03:45.204Z,81.70
2022-08-03T01:06:18.847Z,81.41
2022-08-03T01:08:53.311Z,81.86
2022-08-03T01:11:32.865Z,81.73
2022-08-03T01:14:18.373Z,81.36
2022-08-03T01:16:54.565Z,81.80
2022-08-03T01:19:45.021Z,82.64
2022-08-03T01:22:31.197Z,83.03
2022-08-03T01:25:06.914Z,82.81
2022-08-03T01:27:52.373Z,82.20
2022-08-03T01:30:21.877Z,82.30
2022-08-03T01:33:01.353Z,82.44
2022-08-03T01:35:35.479Z,82.25
2022-08-03T01:38:10.846Z,82.40
2022-08-03T01:40:41.079Z,82.68
2022-08-03T01:43:11.959Z,82.84
2022-08-03T01:45:41.176Z,83.02
2022-08-03T01:48:10.340Z,82.95
2022-08-03T01:50:38.364Z,82.92
2022-08-03T01:53:07.786Z,83.29
2022-08-03T01:55:37.166Z,83.42
2022-08-03T01:58:07.814Z,83.32
2022-08-03T02:00:37.851Z,83.76
2022-08-03T02:03:09.499Z,83.43
2022-08-03T02:05:39.568Z,83.48
2022-08-03T02:08:09.893Z,83.46
2022-08-03T02:10:38.655Z,83.46
2022-08-03T02:13:08.264Z,82.81
2022-08-03T02:15:37.976Z,83.65
2022-08-03T02:18:08.752Z,83.46
2022-08-03T02:20:38.826Z,83.75
2022-08-03T02:23:07.172Z,84.09
2022-08-03T02:25:37.031Z,84.28
2022-08-03T02:28:09.745Z,84.17
2022-08-03T02:30:39.376Z,84.21
2022-08-03T02:33:13.103Z,84.24
2022-08-03T02:35:41.448Z,84.19
2022-08-03T02:38:11.354Z,83.88
2022-08-03T02:40:41.620Z,84.37
2022-08-03T02:43:12.836Z,84.41
2022-08-03T02:45:49.050Z,84.07
2022-08-03T02:48:22.570Z,83.70
2022-08-03T02:50:52.564Z,83.79
2022-08-03T02:53:21.144Z,84.06
2022-08-03T02:55:50.968Z,84.05
2022-08-03T02:58:21.115Z,84.57
2022-08-03T03:00:49.865Z,84.83
2022-08-03T03:03:19.826Z,84.75
2022-08-03T03:05:52.044Z,84.83
2022-08-03T03:08:25.892Z,84.38
2022-08-03T03:10:57.121Z,84.30
2022-08-03T03:13:26.077Z,84.76
2022-08-03T03:15:55.362Z,84.07
2022-08-03T03:18:26.057Z,83.85
2022-08-03T03:20:54.891Z,84.26
2022-08-03T03:23:26.403Z,84.42
2022-08-03T03:25:55.905Z,84.43
2022-08-03T03:28:24.367Z,84.44
2022-08-03T03:30:53.467Z,83.95
2022-08-03T03:33:21.919Z,84.26
2022-08-03T03:35:51.695Z,83.72
2022-08-03T03:38:19.826Z,83.81
2022-08-03T03:40:47.821Z,84.44
2022-08-03T03:43:15.357Z,84.66
2022-08-03T03:45:43.152Z,85.37
2022-08-03T03:48:10.937Z,85.72
2022-08-03T03:50:40.762Z,85.96
2022-08-03T03:53:12.524Z,85.85
2022-08-03T03:55:59.674Z,85.58
2022-08-03T03:58:28.636Z,85.20
2022-08-03T04:00:56.126Z,85.26
2022-08-03T04:03:23.653Z,85.11
2022-08-03T04:06:08.738Z,85.23
2022-08-03T04:08:55.417Z,85.07
2022-08-03T04:11:30.224Z,85.43
2022-08-03T04:14:04.493Z,85.31
2022-08-03T04:16:35.643Z,84.99
2022-08-03T04:19:06.281Z,84.82
2022-08-03T04:21:36.370Z,84.02
2022-08-03T04:24:09.388Z,84.06
2022-08-03T04:26:40.836Z,83.80
2022-08-03T04:29:10.406Z,83.93
2022-08-03T04:31:39.921Z,84.07
2022-08-03T04:34:08.527Z,83.64
2022-08-03T04:36:40.856Z,83.40
2022-08-03T04:39:14.458Z,83.16
2022-08-03T04:42:02.184Z,83.05
2022-08-03T04:44:35.803Z,83.41
2022-08-03T04:47:03.476Z,83.29
2022-08-03T04:49:31.841Z,82.80
2022-08-03T04:51:59.561Z,81.86
2022-08-03T04:54:28.355Z,81.38
2022-08-03T04:56:55.804Z,80.92
2022-08-03T04:59:26.592Z,80.88
2022-08-03T05:01:54.116Z,79.42
2022-08-03T05:04:22.967Z,79.36
2022-08-03T05:06:54.864Z,78.74
2022-08-03T05:09:50.005Z,77.76
2022-08-03T05:12:12.084Z,77.29
2022-08-03T05:14:39.655Z,77.05
2022-08-03T05:17:07.333Z,77.21
2022-08-03T05:19:34.856Z,77.76
2022-08-03T05:22:03.158Z,77.95
2022-08-03T05:24:30.600Z,77.58
2022-08-03T05:26:58.162Z,76.50
2022-08-03T05:29:26.945Z,76.39
2022-08-03T05:31:54.440Z,75.33
2022-08-03T05:34:21.879Z,75.46
2022-08-03T05:36:49.347Z,74.49
2022-08-03T05:39:16.799Z,73.40
2022-08-03T05:41:44.246Z,72.20
2022-08-03T05:44:11.707Z,72.44
2022-08-03T05:46:40.491Z,72.93
2022-08-03T05:49:08.097Z,70.65
2022-08-03T05:51:37.032Z,70.05
2022-08-03T05:54:04.636Z,68.31
2022-08-03T05:56:32.271Z,67.66
2022-08-03T05:59:07.353Z,66.16
2022-08-03T06:01:48.726Z,65.19
2022-08-03T06:04:16.247Z,64.75
2022-08-03T06:06:44.103Z,64.14
2022-08-03T06:09:11.707Z,64.36
2022-08-03T06:11:39.308Z,63.20
2022-08-03T06:14:07.180Z,62.98
2022-08-03T06:16:35.368Z,61.55
2022-08-03T06:19:04.241Z,60.27
2022-08-03T06:21:31.874Z,59.57
2022-08-03T06:23:59.311Z,58.80
2022-08-03T06:26:30.002Z,57.80
2022-08-03T06:28:57.479Z,57.49
2022-08-03T06:31:33.288Z,56.46
2022-08-03T06:34:34.351Z,56.88
2022-08-03T06:36:52.421Z,56.22
2022-08-03T06:39:20.418Z,55.86
2022-08-03T06:41:47.873Z,55.84
2022-08-03T06:44:15.362Z,55.03
2022-08-03T06:46:43.256Z,53.88
2022-08-03T06:49:12.176Z,53.42
2022-08-03T06:52:05.249Z,53.34
2022-08-03T06:54:27.051Z,52.85
2022-08-03T06:56:55.223Z,52.42
2022-08-03T07:00:09.141Z,51.46
2022-08-03T07:02:11.455Z,51.03
2022-08-03T07:04:40.376Z,49.40
2022-08-03T07:07:07.818Z,49.08
2022-08-03T07:09:35.264Z,49.38
2022-08-03T07:12:04.201Z,48.70
2022-08-03T07:14:31.639Z,46.68
2022-08-03T07:16:59.095Z,48.05
2022-08-03T07:19:26.798Z,46.72
2022-08-03T07:21:56.218Z,46.12
2022-08-03T07:24:29.613Z,46.41
2022-08-03T07:26:57.089Z,45.45
2022-08-03T07:29:24.949Z,46.37
2022-08-03T07:31:52.377Z,46.28
2022-08-03T07:34:19.893Z,46.43
2022-08-03T07:36:47.650Z,45.24
2022-08-03T07:39:17.997Z,45.33
2022-08-03T07:41:45.832Z,43.89
2022-08-03T07:44:13.324Z,43.93
2022-08-03T07:46:40.779Z,44.07
2022-08-03T07:49:09.670Z,42.74
2022-08-03T07:51:37.577Z,42.40
2022-08-03T07:54:05.181Z,42.44
2022-08-03T07:56:34.327Z,41.90
2022-08-03T07:59:02.830Z,40.39
2022-08-03T08:01:32.732Z,41.55
2022-08-03T08:04:00.331Z,39.59
2022-08-03T08:06:27.784Z,39.87
2022-08-03T08:08:59.445Z,39.25
2022-08-03T08:11:26.920Z,40.76
2022-08-03T08:13:55.731Z,39.75
2022-08-03T08:16:23.228Z,39.03
2022-08-03T08:18:50.720Z,40.09
2022-08-03T08:21:18.232Z,39.54
2022-08-03T08:23:49.474Z,40.87
2022-08-03T08:26:24.540Z,39.42
2022-08-03T08:28:52.709Z,39.86
2022-08-03T08:31:21.618Z,40.31
2022-08-03T08:34:03.721Z,39.17
2022-08-03T08:36:31.858Z,39.61
2022-08-03T08:38:59.396Z,38.55
2022-08-03T08:41:32.177Z,39.92
2022-08-03T08:44:00.486Z,39.13
2022-08-03T08:46:33.188Z,39.33
2022-08-03T08:49:04.503Z,40.79
2022-08-03T08:51:50.931Z,39.98
2022-08-03T08:54:26.096Z,39.92
2022-08-03T08:56:57.055Z,39.83
2022-08-03T08:59:25.799Z,38.98
2022-08-03T09:01:58.047Z,38.60
2022-08-03T09:04:26.028Z,38.44
2022-08-03T09:07:17.716Z,40.02
2022-08-03T09:10:11.672Z,38.82
2022-08-03T09:12:41.625Z,38.98
2022-08-03T09:15:22.126Z,38.97
2022-08-03T09:17:52.544Z,39.52
2022-08-03T09:20:21.511Z,38.57
2022-08-03T09:22:59.871Z,39.05
2022-08-03T09:25:29.511Z,39.04
2022-08-03T09:28:05.782Z,38.87
2022-08-03T09:30:35.091Z,39.05
2022-08-03T09:33:05.624Z,38.07
2022-08-03T09:35:53.028Z,39.60
2022-08-03T09:38:23.963Z,38.17
2022-08-03T09:40:53.797Z,38.25
2022-08-03T09:43:25.854Z,36.88
2022-08-03T09:46:03.849Z,38.37
2022-08-03T09:48:34.750Z,38.81
2022-08-03T09:51:14.370Z,39.51
2022-08-03T09:53:58.758Z,38.84
2022-08-03T09:56:39.574Z,38.44
2022-08-03T09:59:07.146Z,37.77
2022-08-03T10:01:35.137Z,37.86
2022-08-03T10:04:05.250Z,38.84
2022-08-03T10:06:33.123Z,38.26
2022-08-03T10:09:08.714Z,37.93
2022-08-03T10:11:41.158Z,37.66
2022-08-03T10:14:11.174Z,38.31
2022-08-03T10:16:40.534Z,37.73
2022-08-03T10:19:10.541Z,38.24
2022-08-03T10:21:40.065Z,36.59
2022-08-03T10:24:09.467Z,37.32
2022-08-03T10:26:39.880Z,37.03
2022-08-03T10:29:24.492Z,36.42
2022-08-03T10:31:57.772Z,36.97
2022-08-03T10:34:30.038Z,37.43
2022-08-03T10:37:00.094Z,38.07
2022-08-03T10:39:30.133Z,38.20
2022-08-03T10:41:58.841Z,38.01
2022-08-03T10:44:34.109Z,39.00
2022-08-03T10:47:01.972Z,37.55
2022-08-03T10:49:34.573Z,37.54
2022-08-03T10:52:13.132Z,37.00
2022-08-03T10:55:10.742Z,37.00
2022-08-03T10:57:56.172Z,37.05
2022-08-03T11:00:28.077Z,36.10
2022-08-03T11:03:16.559Z,36.69
2022-08-03T11:05:46.568Z,35.99
2022-08-03T11:08:26.457Z,36.15
2022-08-03T11:10:56.036Z,35.16
2022-08-03T11:13:26.121Z,34.90
2022-08-03T11:16:01.665Z,35.10
2022-08-03T11:18:30.894Z,35.54
2022-08-03T11:21:00.967Z,35.32
2022-08-03T11:24:04.913Z,35.79
2022-08-03T11:26:31.596Z,34.73
2022-08-03T11:29:31.496Z,35.67
2022-08-03T11:31:59.052Z,34.15
2022-08-03T11:34:27.063Z,33.74
2022-08-03T11:37:21.772Z,34.19
2022-08-03T11:39:52.915Z,34.44
2022-08-03T11:42:41.573Z,33.48
2022-08-03T11:45:13.253Z,33.66
2022-08-03T11:47:51.022Z,32.80
2022-08-03T11:50:20.031Z,33.93
2022-08-03T11:52:48.712Z,31.89
2022-08-03T11:55:20.221Z,33.04
2022-08-03T11:59:01.582Z,33.35
2022-08-03T12:00:37.024Z,32.07
2022-08-03T12:03:07.362Z,33.09
2022-08-03T12:05:39.958Z,31.79
2022-08-03T12:08:09.825Z,31.62
2022-08-03T12:10:38.852Z,31.88
2022-08-03T12:14:43.925Z,32.36
2022-08-03T12:15:59.203Z,32.47
2022-08-03T12:18:26.794Z,32.37
2022-08-03T12:21:04.217Z,31.45
2022-08-03T12:23:35.988Z,32.04
2022-08-03T12:26:06.927Z,33.12
2022-08-03T12:28:37.905Z,32.77
2022-08-03T12:31:09.174Z,32.27
2022-08-03T12:33:59.457Z,32.17
2022-08-03T12:36:29.566Z,32.68
2022-08-03T12:38:59.290Z,32.60
2022-08-03T12:41:31.803Z,32.26
2022-08-03T12:43:59.471Z,31.80
2022-08-03T12:46:33.678Z,31.85
2022-08-03T12:49:09.654Z,30.94
2022-08-03T12:51:39.271Z,30.93
2022-08-03T12:54:07.220Z,31.00
2022-08-03T12:56:34.696Z,31.35
2022-08-03T12:59:02.265Z,30.74
2022-08-03T13:01:38.712Z,31.07
2022-08-03T13:04:33.662Z,31.36
2022-08-03T13:07:03.432Z,31.65
2022-08-03T13:09:33.048Z,31.40
2022-08-03T13:12:11.447Z,30.99
2022-08-03T13:14:39.200Z,30.92
2022-08-03T13:17:08.270Z,30.93
2022-08-03T13:19:36.611Z,31.48
2022-08-03T13:22:12.105Z,31.49
2022-08-03T13:24:39.657Z,30.77
2022-08-03T13:28:01.404Z,30.51
2022-08-03T13:29:55.216Z,31.06
2022-08-03T13:32:24.245Z,31.12
2022-08-03T13:34:51.917Z,31.40
2022-08-03T13:37:19.374Z,31.24
2022-08-03T13:39:58.150Z,31.45
2022-08-03T13:42:28.295Z,31.84
2022-08-03T13:44:55.853Z,31.94
2022-08-03T13:47:24.727Z,31.97
2022-08-03T13:49:54.210Z,31.87
2022-08-03T13:52:29.784Z,31.12
2022-08-03T13:54:57.254Z,31.12
2022-08-03T13:58:02.872Z,31.24
2022-08-03T14:00:26.137Z,30.30
2022-08-03T14:03:03.793Z,29.40
2022-08-03T14:05:32.571Z,29.83
2022-08-03T14:08:04.161Z,29.19
2022-08-03T14:10:32.543Z,28.11
2022-08-03T14:13:00.704Z,26.81
2022-08-03T14:15:28.909Z,27.52
2022-08-03T14:17:58.680Z,28.06
2022-08-03T14:20:36.741Z,28.32
2022-08-03T14:23:06.639Z,26.22
2022-08-03T14:25:43.439Z,26.02
2022-08-03T14:28:18.732Z,26.79
2022-08-03T14:30:46.471Z,25.73
2022-08-03T14:33:15.332Z,25.43
2022-08-03T14:35:42.883Z,24.20
2022-08-03T14:38:10.332Z,24.61
2022-08-03T14:40:37.779Z,24.91
2022-08-03T14:43:05.613Z,26.04
2022-08-03T14:45:34.152Z,25.21
2022-08-03T14:50:28.573Z,24.97
2022-08-03T14:50:51.939Z,25.17
2022-08-03T14:53:19.766Z,24.42
2022-08-03T14:55:50.784Z,25.11
2022-08-03T14:58:20.826Z,24.10
2022-08-03T15:00:48.879Z,24.38
2022-08-03T15:03:17.001Z,25.91
2022-08-03T15:05:45.125Z,25.27
2022-08-03T15:08:13.920Z,26.02
2022-08-03T15:10:44.936Z,26.31
2022-08-03T15:13:13.301Z,26.25
2022-08-03T15:15:41.256Z,25.67
2022-08-03T15:18:08.966Z,24.54
2022-08-03T15:20:44.408Z,25.64
2022-08-03T15:23:15.081Z,26.32
2022-08-03T15:26:28.121Z,28.01
2022-08-03T15:28:30.380Z,27.65
2022-08-03T15:30:57.990Z,28.23
2022-08-03T15:33:25.470Z,28.80
2022-08-03T15:35:52.949Z,28.91
2022-08-03T15:38:22.878Z,29.31
2022-08-03T15:40:54.325Z,28.72
2022-08-03T15:43:22.430Z,29.11
2022-08-03T15:45:54.583Z,28.10
2022-08-03T15:48:37.339Z,27.81
2022-08-03T15:51:06.107Z,28.42
2022-08-03T15:53:35.643Z,26.61
2022-08-03T15:56:09.697Z,27.53
2022-08-03T15:59:04.043Z,27.04
2022-08-03T16:01:27.128Z,26.82
2022-08-03T16:03:54.594Z,26.92
2022-08-03T16:06:29.772Z,29.27
2022-08-03T16:09:05.667Z,30.37
2022-08-03T16:11:52.039Z,29.99
2022-08-03T16:14:32.281Z,30.74
2022-08-03T16:17:03.211Z,31.25
2022-08-03T16:19:30.657Z,31.75
2022-08-03T16:21:58.098Z,32.92
2022-08-03T16:24:27.734Z,31.40
2022-08-03T16:26:55.745Z,30.27
2022-08-03T16:29:23.800Z,31.20
2022-08-03T16:31:52.298Z,32.26
2022-08-03T16:34:20.968Z,32.36
2022-08-03T16:36:48.497Z,31.88
2022-08-03T16:39:16.095Z,31.56
2022-08-03T16:41:54.436Z,32.95
2022-08-03T16:44:30.302Z,31.41
2022-08-03T16:46:57.868Z,31.90
2022-08-03T16:49:54.908Z,30.65
2022-08-03T16:52:13.171Z,30.41
2022-08-03T16:54:40.919Z,29.38
2022-08-03T16:57:09.786Z,29.38
2022-08-03T16:59:39.376Z,30.41
2022-08-03T17:02:10.549Z,31.80
2022-08-03T17:04:40.355Z,33.00
2022-08-03T17:07:09.150Z,33.02
2022-08-03T17:09:38.552Z,33.50
2022-08-03T17:12:07.397Z,33.18
2022-08-03T17:14:40.249Z,32.29
2022-08-03T17:17:16.346Z,31.56
2022-08-03T17:19:47.466Z,31.83
2022-08-03T17:22:27.151Z,31.57
2022-08-03T17:24:58.628Z,32.50
2022-08-03T17:28:51.370Z,33.02
2022-08-03T17:30:18.907Z,33.19
2022-08-03T17:32:57.187Z,33.48
2022-08-03T17:35:36.471Z,34.13
2022-08-03T17:38:12.130Z,34.34
2022-08-03T17:40:48.265Z,33.78
2022-08-03T17:44:13.938Z,34.22
2022-08-03T17:46:10.801Z,34.21
2022-08-03T17:48:42.660Z,34.66
2022-08-03T17:51:17.237Z,33.97
2022-08-03T17:53:50.474Z,34.36
2022-08-03T17:56:44.395Z,33.73
2022-08-03T18:02:47.486Z,34.80
2022-08-03T18:05:18.434Z,35.39
2022-08-03T18:07:59.219Z,36.37
2022-08-03T18:10:34.748Z,36.58
2022-08-03T18:13:10.531Z,36.43
2022-08-03T18:15:43.458Z,36.57
2022-08-03T18:18:16.682Z,36.65
2022-08-03T18:20:57.758Z,36.85
2022-08-03T18:23:36.662Z,37.32
2022-08-03T18:26:07.644Z,37.62
2022-08-03T18:28:40.591Z,37.84
2022-08-03T18:31:11.717Z,37.80
2022-08-03T18:34:17.260Z,37.66
2022-08-03T18:36:31.100Z,38.21
2022-08-03T18:39:02.429Z,38.61
2022-08-03T18:41:32.555Z,38.88
2022-08-03T18:44:09.098Z,39.13
2022-08-03T18:47:07.435Z,39.89
2022-08-03T18:49:53.945Z,40.29
2022-08-03T18:52:27.678Z,40.14
2022-08-03T18:55:13.993Z,40.57
2022-08-03T18:57:53.078Z,41.03
2022-08-03T19:00:24.527Z,41.38
2022-08-03T19:03:12.372Z,41.95
2022-08-03T19:08:48.736Z,42.29
2022-08-03T19:11:28.013Z,42.37
2022-08-03T19:13:57.713Z,42.73
2022-08-03T19:16:32.585Z,44.21
2022-08-03T19:19:02.385Z,43.45
2022-08-03T19:21:34.392Z,43.85
2022-08-03T19:24:05.561Z,43.84
2022-08-03T19:26:38.353Z,43.60
2022-08-03T19:29:14.732Z,43.35
2022-08-03T19:31:59.039Z,44.28
2022-08-03T19:34:29.622Z,43.40
2022-08-03T19:36:59.244Z,44.08
2022-08-03T19:39:27.431Z,44.38
2022-08-03T19:42:08.211Z,44.20
2022-08-03T19:44:45.142Z,44.34
2022-08-03T19:47:19.935Z,44.79
2022-08-03T19:50:05.379Z,45.03
2022-08-03T19:52:42.217Z,45.06
2022-08-03T19:55:12.408Z,44.63
2022-08-03T19:57:43.229Z,44.91
2022-08-03T20:00:12.657Z,44.91
2022-08-03T20:02:42.150Z,45.70
2022-08-03T20:05:11.941Z,47.83
2022-08-03T20:07:47.982Z,47.76
2022-08-03T20:10:17.223Z,48.87
2022-08-03T20:12:45.175Z,49.68
2022-08-03T20:15:13.170Z,49.73
2022-08-03T20:17:56.126Z,49.50
2022-08-03T20:20:27.670Z,49.00
2022-08-03T20:22:58.475Z,50.60
2022-08-03T20:25:38.439Z,51.14
2022-08-03T20:28:13.562Z,52.35
2022-08-03T20:30:44.184Z,52.82
2022-08-03T20:33:12.417Z,52.98
2022-08-03T20:35:49.227Z,53.00
2022-08-03T20:38:19.382Z,53.42
2022-08-03T20:40:47.929Z,54.20
2022-08-03T20:43:15.414Z,55.08
2022-08-03T20:46:01.044Z,54.62
2022-08-03T20:48:31.607Z,54.57
2022-08-03T20:50:59.348Z,54.45
2022-08-03T20:53:57.002Z,54.49
2022-08-03T20:56:16.478Z,54.73
2022-08-03T20:58:50.657Z,55.31
2022-08-03T21:01:27.661Z,55.52
2022-08-03T21:04:06.964Z,55.85
2022-08-03T21:06:41.051Z,56.45
2022-08-03T21:09:19.979Z,56.94
2022-08-03T21:11:50.594Z,57.61
2022-08-03T21:13:01.363Z,42.35
2022-08-03T21:13:04.378Z,34.35
2022-08-03T21:14:21.096Z,57.86
2022-08-03T21:16:51.456Z,58.19
2022-08-03T21:19:21.226Z,57.92
2022-08-03T21:21:50.201Z,58.13
2022-08-03T21:24:22.708Z,58.75
2022-08-03T21:26:54.502Z,59.40
2022-08-03T21:29:22.270Z,60.17
2022-08-03T21:31:50.419Z,60.70
2022-08-03T21:34:18.439Z,60.85
2022-08-03T21:36:46.103Z,60.89
2022-08-03T21:39:13.897Z,61.00
2022-08-03T21:41:42.905Z,61.84
2022-08-03T21:44:10.505Z,61.67
2022-08-03T21:46:40.115Z,61.28
2022-08-03T21:50:06.954Z,61.41
2022-08-03T21:51:59.062Z,61.75
2022-08-03T21:54:34.826Z,62.10
2022-08-03T21:57:06.814Z,61.40
2022-08-03T21:59:37.842Z,61.58
2022-08-03T22:02:07.386Z,61.60
2022-08-03T22:04:55.308Z,61.80
2022-08-03T22:07:24.511Z,62.37
2022-08-03T22:09:53.046Z,62.53
2022-08-03T22:12:24.886Z,63.26
2022-08-03T22:15:01.204Z,62.87
2022-08-03T22:17:55.060Z,64.63
2022-08-03T22:20:19.325Z,64.88
2022-08-03T22:22:55.675Z,65.00
2022-08-03T22:25:28.598Z,64.94
2022-08-03T22:27:58.661Z,65.26
2022-08-03T22:30:26.372Z,65.36
2022-08-03T22:32:56.018Z,65.49
2022-08-03T22:35:25.581Z,65.31
2022-08-03T22:37:54.906Z,65.83
2022-08-03T22:40:22.768Z,65.56
2022-08-03T22:42:52.353Z,66.04
2022-08-03T22:46:06.227Z,66.73
2022-08-03T22:48:09.449Z,66.23
2022-08-03T22:50:36.970Z,66.88
2022-08-03T22:53:04.612Z,66.53
2022-08-03T22:55:32.315Z,66.47
2022-08-03T22:57:59.786Z,66.23
2022-08-03T23:00:28.583Z,66.63
2022-08-03T23:02:58.959Z,67.14
2022-08-03T23:06:00.771Z,66.65
2022-08-03T23:08:19.740Z,67.42
2022-08-03T23:10:48.447Z,66.96
2022-08-03T23:13:17.937Z,67.54
2022-08-03T23:15:52.097Z,68.11
2022-08-03T23:18:21.731Z,68.66
2022-08-03T23:20:51.170Z,68.79
2022-08-03T23:23:20.640Z,69.22
2022-08-03T23:25:50.252Z,69.36
2022-08-03T23:28:18.173Z,69.76
2022-08-03T23:30:47.537Z,70.04
2022-08-03T23:33:15.895Z,69.41
2022-08-03T23:36:29.114Z,69.54
2022-08-03T23:38:45.866Z,70.13
2022-08-03T23:41:14.304Z,71.07
2022-08-03T23:43:50.737Z,71.86
2022-08-03T23:46:22.480Z,72.62
2022-08-03T23:48:50.860Z,72.18
2022-08-03T23:51:24.407Z,72.18
2022-08-03T23:54:00.045Z,72.27
2022-08-03T23:56:37.919Z,71.96
2022-08-03T23:59:12.333Z,72.50
